createdAt,value
2023-01-28T00:14:04.071Z,2.3
2023-01-28T00:33:18.726Z,2.5
2023-01-28T00:52:34.121Z,2.5
2023-01-28T01:11:50.501Z,2.5
2023-01-28T01:31:06.079Z,2.2
2023-01-28T01:50:21.866Z,2.3
2023-01-28T02:09:36.724Z,2.1
2023-01-28T02:28:51.952Z,2
2023-01-28T02:48:07.910Z,1.9
2023-01-28T03:07:27.919Z,2
2023-01-28T03:26:40.316Z,1.9
2023-01-28T03:45:53.720Z,1.8
2023-01-28T04:05:08.323Z,1.8
2023-01-28T04:24:24.200Z,1.7
2023-01-28T04:43:38.875Z,1.5
2023-01-28T05:02:55.090Z,1.7
2023-01-28T05:22:11.177Z,1.7
2023-01-28T05:41:24.993Z,1.4
2023-01-28T06:00:41.241Z,1.4
2023-01-28T06:19:58.223Z,1.5
2023-01-28T06:39:13.742Z,1.4
2023-01-28T06:58:29.690Z,1.4
2023-01-28T07:17:44.369Z,1.1
2023-01-28T07:37:00.825Z,1.2
2023-01-28T07:56:16.872Z,1.2
2023-01-28T08:15:34.811Z,1.3
2023-01-28T08:34:49.563Z,1.5
2023-01-28T08:54:04.070Z,1.3
2023-01-28T09:13:19.608Z,1.3
2023-01-28T09:32:32.205Z,1.2
2023-01-28T09:51:48.900Z,1.3
2023-01-28T10:11:04.692Z,1.5
2023-01-28T10:30:19.328Z,1.3
2023-01-28T10:49:36.909Z,1.4
2023-01-28T11:08:51.982Z,1.4
2023-01-28T11:28:06.106Z,1.7
2023-01-28T11:47:22.939Z,1.6
2023-01-28T12:06:37.015Z,1.7
2023-01-28T12:25:53.529Z,1.7
2023-01-28T12:45:08.419Z,1.6
2023-01-28T13:04:24.602Z,1.5
2023-01-28T13:23:38.989Z,1.8
2023-01-28T13:42:57.217Z,2
2023-01-28T14:02:07.908Z,1.6
2023-01-28T14:21:22.994Z,1.4
2023-01-28T14:40:40.455Z,1.8
2023-01-28T14:59:54.848Z,2
2023-01-28T15:19:10.284Z,1.9
2023-01-28T15:38:21.939Z,1.2
2023-01-28T15:57:37.040Z,1.2
2023-01-28T16:16:49.078Z,0.4
2023-01-28T16:36:08.450Z,0.4
2023-01-28T16:55:20.222Z,0.4
2023-01-28T17:14:35.669Z,0.5
2023-01-28T17:33:49.013Z,0.4
2023-01-28T17:53:01.216Z,-0.3
2023-01-28T18:12:16.701Z,-0.4
2023-01-28T18:31:28.111Z,-0.5
2023-01-28T18:50:38.850Z,-0.8
2023-01-28T19:09:56.489Z,-0.6
2023-01-28T19:29:09.791Z,-1.1
2023-01-28T19:48:25.989Z,-1.3
2023-01-28T20:07:42.145Z,-1.3
2023-01-28T20:26:56.701Z,-1.6
2023-01-28T20:46:10.937Z,-1.4
2023-01-28T21:05:24.469Z,-1.8
2023-01-28T21:24:36.446Z,-1.9
2023-01-28T21:43:50.417Z,-2.2
2023-01-28T22:03:04.129Z,-2.4
2023-01-28T22:22:17.576Z,-2.5
2023-01-28T22:41:28.257Z,-2.5
2023-01-28T23:00:43.002Z,-3
2023-01-28T23:19:59.357Z,-2.9
2023-01-28T23:39:14.941Z,-2.8
2023-01-28T23:58:42.500Z,-3
